Springfield, CO

2:17 AM MDT on September 22, 2014 (GMT -0600)
Lamar Municipal | Change Station
CLOSE
Current Station
Airport
Location: Lamar,
Elevation: 3704 ft
Nearby Weather Stations

Elev 3704 ft 38.07 °N, 102.69 °W | Updated 1 hour ago

Partly Cloudy
Partly Cloudy
59 °F
Feels Like 59 °F
N
9
Wind Variable Wind from SE

Today
High -- | Low -- °F
--% Chance of Precip.
Yesterday
High -- | Low -- °F
Precip. -- in
6:38 AM 6:47 PM
Waning Crescent, 3% visible
Pressure 30.19 in
Visibility 10.0 miles
Clouds Clear
Dew Point 42 °F
Humidity 53%
Rainfall 0.00 in
Snow Depth Not available.
UV 0 out of 12
Pollen 4.50 out of 12
Air Quality Not available.
Flu Activity Not available.
METAR KLAA 220653Z AUTO 14008KT 10SM CLR 15/06 A3030 RMK AO2 SLP223 T01500056 402720111

More Conditions Fewer Conditions

Pressure 30.19 in
Visibility 10.0 miles
Clouds Clear
Dew Point 42 °F
Humidity 53%
Rainfall 0.00 in
Snow Depth Not available.
UV 0 out of 12
Pollen 4.50 out of 12
Air Quality Not available.
Flu Activity Not available.
METAR KLAA 220653Z AUTO 14008KT 10SM CLR 15/06 A3030 RMK AO2 SLP223 T01500056 402720111

More Conditions Fewer Conditions

10-Day Weather Forecast

Almanac

Astronomy

Sep. 22, 2014 Rise Set
Actual Time 6:38 AM MDT 6:47 PM MDT
Civil Twilight 6:12 AM MDT 7:13 PM MDT
Nautical Twilight 5:41 AM MDT 7:43 PM MDT
Astronomical Twilight 5:10 AM MDT 8:14 PM MDT
Moon 5:10 AM MDT 5:55 PM MDT
Length of Visible Light 13h 01m
Length of Day
12h 08m
Tomorrow will be 2m 23s shorter.
Waning Crescent, 3% of the Moon is Illuminated
Today
Waning Crescent
Sep 24
New
Oct 1
First Quarter
Oct 8
Full
Oct 15
Last Quarter

Today's Extremes

State Highs State Lows

Community

WunderPhotos

Upload Photos

1,755,395 photos uploaded!

Nearby

Snow Depth

Station Depth Elevation
Willow Creek Pass 0 in 9540 ft
Grizzly Peak 0 in 11100 ft
Butte 0 in 10160 ft
Willow Park 0 in 10700 ft
Zirkel 0 in 9340 ft

Earthquake Activity

City Distance Mag. Time & Date
No recent earthquake activity has been reported nearby.
Minimum magnitude displayed is 2.5.

Coastal Water Temperatures

Place Temperature
No Stations Reporting

Nearby Weather Stations